Time;durP1;ratioP1;P1;durP2;ratioP2;P2;SDS_P1;SDS_P2;PMS_P1;PMS_P2;Temp;Humidity;BMP_temperature;BMP_pressure;BME280_temperature;BME280_humidity;BME280_pressure;Samples;Min_cycle;Max_cycle;Signal;HPM_P1;HPM_P2
2023/11/26 00:00:12;;;;;;;7.13;1.85;;;;;;;;;;5019879;28;20025;-63
2023/11/26 00:02:38;;;;;;;4.70;1.70;;;;;;;;;;5023655;28;20061;-58
2023/11/26 00:05:03;;;;;;;4.70;1.50;;;;;;;;;;5027218;28;20097;-58
2023/11/26 00:07:28;;;;;;;4.83;1.50;;;;;;;;;;5022922;28;20047;-63
2023/11/26 00:09:53;;;;;;;7.73;1.57;;;;;;;;;;5026830;28;20807;-57
2023/11/26 00:12:18;;;;;;;4.03;1.20;;;;;;;;;;5023714;28;20100;-58
2023/11/26 00:14:43;;;;;;;4.93;1.40;;;;;;;;;;5019441;28;20032;-57
2023/11/26 00:17:09;;;;;;;6.30;1.73;;;;;;;;;;5019539;28;20034;-60
2023/11/26 00:19:34;;;;;;;4.57;1.30;;;;;;;;;;5030024;28;20017;-61
2023/11/26 00:21:59;;;;;;;5.60;1.40;;;;;;;;;;5023391;28;20021;-59
2023/11/26 00:24:24;;;;;;;4.80;1.42;;;;;;;;;;5024442;28;20459;-60
2023/11/26 00:26:50;;;;;;;6.95;1.70;;;;;;;;;;5025926;28;20083;-58
2023/11/26 00:29:15;;;;;;;6.90;1.57;;;;;;;;;;5029036;28;20028;-58
2023/11/26 00:31:40;;;;;;;6.77;1.40;;;;;;;;;;5019587;28;20397;-61
2023/11/26 00:34:07;;;;;;;4.13;1.40;;;;;;;;;;5031245;28;20404;-57
2023/11/26 00:36:32;;;;;;;3.85;1.20;;;;;;;;;;5029117;28;20565;-61
2023/11/26 00:38:57;;;;;;;4.57;1.50;;;;;;;;;;5026049;28;20112;-58
2023/11/26 00:41:22;;;;;;;5.50;1.80;;;;;;;;;;5024526;28;20087;-62
2023/11/26 00:43:47;;;;;;;3.90;1.40;;;;;;;;;;5026496;28;20027;-58
2023/11/26 00:46:13;;;;;;;6.67;1.60;;;;;;;;;;5029500;28;20163;-59
2023/11/26 00:48:38;;;;;;;3.70;1.17;;;;;;;;;;5025206;28;20456;-63
2023/11/26 00:51:04;;;;;;;3.88;1.38;;;;;;;;;;5023070;28;20092;-57
2023/11/26 00:53:29;;;;;;;4.07;1.23;;;;;;;;;;5021051;28;20021;-58
2023/11/26 00:55:54;;;;;;;4.10;1.30;;;;;;;;;;5022048;28;20064;-61
2023/11/26 00:58:20;;;;;;;3.10;1.20;;;;;;;;;;5024346;28;20458;-57
2023/11/26 01:00:46;;;;;;;3.38;1.10;;;;;;;;;;5029001;28;20021;-60
2023/11/26 01:03:11;;;;;;;4.57;1.50;;;;;;;;;;5020220;28;20068;-59
2023/11/26 01:05:36;;;;;;;6.03;1.30;;;;;;;;;;5028773;28;20026;-57
2023/11/26 01:08:01;;;;;;;7.17;1.57;;;;;;;;;;5029475;28;20575;-58
2023/11/26 01:10:27;;;;;;;4.77;1.43;;;;;;;;;;5023214;28;20034;-61
2023/11/26 01:12:52;;;;;;;4.73;1.30;;;;;;;;;;5025972;28;20029;-59
2023/11/26 01:15:17;;;;;;;5.23;1.23;;;;;;;;;;5025267;28;20491;-60
2023/11/26 01:17:42;;;;;;;6.67;1.27;;;;;;;;;;5026878;28;20048;-62
2023/11/26 01:20:11;;;;;;;5.07;1.33;;;;;;;;;;5025991;28;20026;-58
2023/11/26 01:22:37;;;;;;;5.40;1.30;;;;;;;;;;5022451;28;20501;-61
2023/11/26 01:25:03;;;;;;;6.10;1.40;;;;;;;;;;5021197;28;20022;-57
2023/11/26 01:27:28;;;;;;;5.25;1.30;;;;;;;;;;5021915;28;20043;-58
2023/11/26 01:29:53;;;;;;;5.07;1.60;;;;;;;;;;5025421;28;20017;-63
2023/11/26 01:32:18;;;;;;;5.03;1.20;;;;;;;;;;5026003;28;20096;-60
2023/11/26 01:34:43;;;;;;;5.82;1.60;;;;;;;;;;5019770;28;20045;-59
2023/11/26 01:37:09;;;;;;;4.47;1.40;;;;;;;;;;5028261;28;20474;-58
2023/11/26 01:39:34;;;;;;;6.63;1.70;;;;;;;;;;5018932;28;20018;-59
2023/11/26 01:41:59;;;;;;;5.80;1.50;;;;;;;;;;5025928;28;20394;-60
2023/11/26 01:44:25;;;;;;;7.40;1.60;;;;;;;;;;5029199;28;20450;-57
2023/11/26 01:46:50;;;;;;;5.03;1.50;;;;;;;;;;5027163;28;20139;-58
2023/11/26 01:49:15;;;;;;;5.22;1.55;;;;;;;;;;5026787;28;20021;-60
2023/11/26 01:51:41;;;;;;;4.87;1.47;;;;;;;;;;5027166;28;20026;-57
2023/11/26 01:54:07;;;;;;;5.60;1.48;;;;;;;;;;5025175;28;20551;-57
2023/11/26 01:56:32;;;;;;;4.07;1.37;;;;;;;;;;5025743;28;20092;-58
2023/11/26 01:58:57;;;;;;;4.78;1.60;;;;;;;;;;5026966;28;20420;-64
2023/11/26 02:01:23;;;;;;;4.47;1.20;;;;;;;;;;5020876;28;20029;-58
2023/11/26 02:03:48;;;;;;;4.95;1.60;;;;;;;;;;5018193;28;20026;-59
2023/11/26 02:06:14;;;;;;;5.53;1.50;;;;;;;;;;5025696;28;20025;-62
2023/11/26 02:08:39;;;;;;;4.57;1.40;;;;;;;;;;5029412;28;20021;-58
2023/11/26 02:11:05;;;;;;;4.50;1.50;;;;;;;;;;5028324;28;20018;-58
2023/11/26 02:13:30;;;;;;;5.33;1.70;;;;;;;;;;5019832;28;20030;-60
2023/11/26 02:15:56;;;;;;;5.82;1.70;;;;;;;;;;5028854;28;20531;-62
2023/11/26 02:18:21;;;;;;;3.95;1.42;;;;;;;;;;5026757;28;20037;-58
2023/11/26 02:20:47;;;;;;;5.57;1.70;;;;;;;;;;5028563;28;20382;-59
2023/11/26 02:23:12;;;;;;;6.40;1.77;;;;;;;;;;5027381;28;20464;-59
2023/11/26 02:25:38;;;;;;;5.05;1.40;;;;;;;;;;5018426;28;20044;-60
2023/11/26 02:28:05;;;;;;;5.03;1.50;;;;;;;;;;5026908;28;20041;-58
2023/11/26 02:30:30;;;;;;;5.25;1.52;;;;;;;;;;5025701;28;20043;-57
2023/11/26 02:32:56;;;;;;;5.37;1.47;;;;;;;;;;5026675;28;20022;-61
2023/11/26 02:35:22;;;;;;;5.73;1.40;;;;;;;;;;5022152;28;20018;-58
2023/11/26 02:37:47;;;;;;;3.63;1.10;;;;;;;;;;5029737;28;20017;-60
2023/11/26 02:40:15;;;;;;;3.40;1.10;;;;;;;;;;5031469;28;20029;-60
2023/11/26 02:42:40;;;;;;;3.72;1.27;;;;;;;;;;5023770;28;20029;-60
2023/11/26 02:45:05;;;;;;;3.57;0.93;;;;;;;;;;5032522;28;20030;-59
2023/11/26 02:47:31;;;;;;;3.08;0.95;;;;;;;;;;5030461;28;20098;-58
2023/11/26 02:49:57;;;;;;;3.88;0.98;;;;;;;;;;5031214;28;20040;-59
2023/11/26 02:52:23;;;;;;;4.45;1.30;;;;;;;;;;5030253;28;20036;-62
2023/11/26 02:54:48;;;;;;;2.92;0.98;;;;;;;;;;5022194;28;20112;-58
2023/11/26 02:57:14;;;;;;;4.90;1.20;;;;;;;;;;5030042;28;20029;-59
2023/11/26 02:59:40;;;;;;;3.05;0.90;;;;;;;;;;5027086;28;20014;-59
2023/11/26 03:02:05;;;;;;;3.95;1.30;;;;;;;;;;5028282;28;20041;-58
2023/11/26 03:04:31;;;;;;;2.93;1.20;;;;;;;;;;5025899;28;20025;-61
2023/11/26 03:06:58;;;;;;;5.90;1.55;;;;;;;;;;5041866;28;20556;-60
2023/11/26 03:14:58;;;;;;;4.35;1.17;;;;;;;;;;5019910;28;20040;-62
2023/11/26 03:17:25;;;;;;;4.60;1.40;;;;;;;;;;5040460;28;20026;-57
2023/11/26 03:19:50;;;;;;;6.57;1.50;;;;;;;;;;5029653;28;20014;-63
2023/11/26 03:22:15;;;;;;;3.90;1.27;;;;;;;;;;5031129;28;20160;-59
2023/11/26 03:24:40;;;;;;;4.43;1.25;;;;;;;;;;5025941;28;20121;-60
2023/11/26 03:27:06;;;;;;;5.20;1.47;;;;;;;;;;5020117;28;20041;-58
2023/11/26 03:29:31;;;;;;;7.95;1.60;;;;;;;;;;5029118;28;20093;-58
2023/11/26 03:31:57;;;;;;;6.95;1.63;;;;;;;;;;5030350;28;20088;-63
2023/11/26 03:34:28;;;;;;;5.53;1.65;;;;;;;;;;5027608;28;20025;-58
2023/11/26 03:36:53;;;;;;;5.05;1.70;;;;;;;;;;5030602;28;20029;-60
2023/11/26 03:39:18;;;;;;;4.43;1.35;;;;;;;;;;5027491;28;20481;-62
2023/11/26 03:41:43;;;;;;;7.33;1.70;;;;;;;;;;5035135;28;20124;-58
2023/11/26 03:44:09;;;;;;;5.32;1.60;;;;;;;;;;5018485;28;20500;-62
2023/11/26 03:46:35;;;;;;;5.97;1.70;;;;;;;;;;5028512;28;20381;-57
2023/11/26 03:49:01;;;;;;;3.80;1.48;;;;;;;;;;5028547;28;20026;-61
2023/11/26 03:51:28;;;;;;;7.18;1.80;;;;;;;;;;5022659;28;20024;-60
2023/11/26 03:53:53;;;;;;;;;;;;;;;;;;5021932;28;20060;-58
2023/11/26 03:56:19;;;;;;;4.55;1.58;;;;;;;;;;5025464;28;19944;-61
2023/11/26 03:58:44;;;;;;;4.78;1.30;;;;;;;;;;5026873;28;20063;-59
2023/11/26 04:01:09;;;;;;;3.47;1.27;;;;;;;;;;5027564;28;20021;-59
2023/11/26 04:03:35;;;;;;;5.83;1.60;;;;;;;;;;5027253;28;20022;-57
2023/11/26 04:06:00;;;;;;;4.37;1.50;;;;;;;;;;5027329;28;20100;-58
2023/11/26 04:08:26;;;;;;;4.53;1.35;;;;;;;;;;5027645;28;20401;-61
2023/11/26 04:10:52;;;;;;;3.95;1.42;;;;;;;;;;5019808;28;20091;-58
2023/11/26 04:13:18;;;;;;;3.95;1.17;;;;;;;;;;5036936;28;20486;-64
2023/11/26 04:15:54;;;;;;;3.70;1.33;;;;;;;;;;5026432;28;20025;-58
2023/11/26 04:18:19;;;;;;;6.45;1.60;;;;;;;;;;5024868;28;20037;-61
2023/11/26 04:20:47;;;;;;;4.18;1.40;;;;;;;;;;5029403;28;20054;-57
2023/11/26 04:23:12;;;;;;;4.07;1.30;;;;;;;;;;5027208;28;20029;-59
2023/11/26 04:25:38;;;;;;;3.83;1.10;;;;;;;;;;5019900;28;20044;-60
2023/11/26 04:28:03;;;;;;;4.53;1.20;;;;;;;;;;5027620;28;20017;-62
2023/11/26 04:30:28;;;;;;;5.80;1.30;;;;;;;;;;5026034;28;20029;-59
2023/11/26 04:32:53;;;;;;;4.60;1.43;;;;;;;;;;5026918;28;20034;-60
2023/11/26 04:35:19;;;;;;;3.43;1.27;;;;;;;;;;5027745;28;20057;-59
2023/11/26 04:37:44;;;;;;;5.07;1.20;;;;;;;;;;5020068;28;20010;-59
2023/11/26 04:40:10;;;;;;;4.07;1.20;;;;;;;;;;5025237;28;20433;-66
2023/11/26 04:42:35;;;;;;;4.90;1.30;;;;;;;;;;5025408;28;20068;-62
2023/11/26 04:45:01;;;;;;;3.53;1.10;;;;;;;;;;5026379;28;20056;-60
2023/11/26 04:47:27;;;;;;;4.22;1.30;;;;;;;;;;5021405;28;20108;-58
2023/11/26 04:49:57;;;;;;;4.60;2.10;;;;;;;;;;5023605;28;20445;-60
2023/11/26 04:52:23;;;;;;;3.95;1.20;;;;;;;;;;5025928;28;20439;-58
2023/11/26 04:54:48;;;;;;;4.47;1.30;;;;;;;;;;5023821;28;20029;-64
2023/11/26 04:57:13;;;;;;;3.15;1.02;;;;;;;;;;5029903;28;20493;-58
2023/11/26 04:59:39;;;;;;;3.73;1.20;;;;;;;;;;5025571;28;20021;-61
2023/11/26 05:02:09;;;;;;;3.47;1.23;;;;;;;;;;5017278;28;20026;-60
2023/11/26 05:04:34;;;;;;;3.90;1.30;;;;;;;;;;5016742;28;20060;-59
2023/11/26 05:07:00;;;;;;;4.67;1.27;;;;;;;;;;5029556;28;20427;-65
2023/11/26 05:09:25;;;;;;;4.63;1.10;;;;;;;;;;5028082;28;20448;-61
2023/11/26 05:11:50;;;;;;;3.92;1.10;;;;;;;;;;5029328;28;20048;-60
2023/11/26 05:14:16;;;;;;;4.10;1.33;;;;;;;;;;5029154;28;20057;-58
2023/11/26 05:16:41;;;;;;;3.97;1.20;;;;;;;;;;5029431;28;20562;-60
2023/11/26 05:19:06;;;;;;;4.70;1.13;;;;;;;;;;5030730;28;20387;-59
2023/11/26 05:21:31;;;;;;;3.53;1.10;;;;;;;;;;5018549;28;20026;-60
2023/11/26 05:23:57;;;;;;;5.35;1.05;;;;;;;;;;5022998;28;20108;-59
2023/11/26 05:26:23;;;;;;;3.13;1.10;;;;;;;;;;5019184;28;20105;-60
2023/11/26 05:28:48;;;;;;;2.92;0.95;;;;;;;;;;5031768;28;20013;-61
2023/11/26 05:31:14;;;;;;;3.23;1.07;;;;;;;;;;5017896;28;20052;-58
2023/11/26 05:33:40;;;;;;;3.50;1.10;;;;;;;;;;5039832;28;20086;-60
2023/11/26 05:36:05;;;;;;;3.83;1.03;;;;;;;;;;5021899;28;20017;-58
2023/11/26 05:38:31;;;;;;;4.60;1.15;;;;;;;;;;5023773;28;20103;-62
2023/11/26 05:40:56;;;;;;;4.43;1.10;;;;;;;;;;5025516;28;20104;-58
2023/11/26 05:43:21;;;;;;;3.00;0.97;;;;;;;;;;5030609;28;20564;-59
2023/11/26 05:45:46;;;;;;;2.53;0.90;;;;;;;;;;5025525;28;20029;-62
2023/11/26 05:48:11;;;;;;;4.73;1.10;;;;;;;;;;5025912;28;20112;-59
2023/11/26 05:50:37;;;;;;;2.83;1.00;;;;;;;;;;5022792;28;20029;-60
2023/11/26 05:53:02;;;;;;;4.73;1.00;;;;;;;;;;5014682;28;20022;-63
2023/11/26 05:55:27;;;;;;;3.75;0.90;;;;;;;;;;5016286;28;20489;-60
2023/11/26 05:57:52;;;;;;;2.80;0.97;;;;;;;;;;5026397;28;20603;-63
2023/11/26 06:00:18;;;;;;;3.03;0.93;;;;;;;;;;5020461;28;20049;-64
2023/11/26 06:02:43;;;;;;;3.67;0.90;;;;;;;;;;5023547;28;20034;-60
2023/11/26 06:05:08;;;;;;;3.83;1.02;;;;;;;;;;5025123;28;20032;-63
2023/11/26 06:07:34;;;;;;;4.13;1.10;;;;;;;;;;5016744;28;20026;-59
2023/11/26 06:09:59;;;;;;;2.93;0.90;;;;;;;;;;5023752;28;20018;-66
2023/11/26 06:12:24;;;;;;;2.97;0.90;;;;;;;;;;5030593;28;20435;-61
2023/11/26 06:14:50;;;;;;;3.45;1.00;;;;;;;;;;5031783;28;20025;-57
2023/11/26 06:17:15;;;;;;;3.05;1.00;;;;;;;;;;5032371;28;20060;-57
2023/11/26 06:19:41;;;;;;;4.47;0.80;;;;;;;;;;5021179;28;20406;-59
2023/11/26 06:22:06;;;;;;;4.70;1.10;;;;;;;;;;5021293;28;20033;-58
2023/11/26 06:24:32;;;;;;;3.85;0.98;;;;;;;;;;5031612;28;20111;-57
2023/11/26 06:26:57;;;;;;;2.78;0.88;;;;;;;;;;5033259;28;20457;-58
2023/11/26 06:29:23;;;;;;;3.38;0.90;;;;;;;;;;5026524;28;20025;-57
2023/11/26 06:31:48;;;;;;;2.97;0.80;;;;;;;;;;5021439;28;20018;-57
2023/11/26 06:34:13;;;;;;;4.63;1.10;;;;;;;;;;5021272;28;20075;-58
2023/11/26 06:36:39;;;;;;;2.87;1.00;;;;;;;;;;5021811;28;20093;-60
2023/11/26 06:39:06;;;;;;;3.40;1.00;;;;;;;;;;5021885;28;20049;-59
2023/11/26 06:41:34;;;;;;;3.72;0.90;;;;;;;;;;5029417;28;20036;-63
2023/11/26 06:44:00;;;;;;;3.17;1.10;;;;;;;;;;5027458;28;20113;-63
2023/11/26 06:46:27;;;;;;;2.88;1.10;;;;;;;;;;5021016;28;20100;-58
2023/11/26 06:48:52;;;;;;;;;;;;;;;;;;5017701;28;20010;-62
2023/11/26 06:51:20;;;;;;;4.35;1.00;;;;;;;;;;5025227;28;19986;-62
2023/11/26 06:53:46;;;;;;;4.40;1.20;;;;;;;;;;5026920;28;20056;-62
2023/11/26 06:56:11;;;;;;;4.15;1.30;;;;;;;;;;5036864;28;20044;-59
2023/11/26 06:58:37;;;;;;;4.77;1.40;;;;;;;;;;5033586;28;20013;-59
2023/11/26 07:01:03;;;;;;;4.97;1.10;;;;;;;;;;5027594;28;20054;-60
2023/11/26 07:03:28;;;;;;;3.97;1.23;;;;;;;;;;5029929;28;20022;-64
2023/11/26 07:05:53;;;;;;;3.67;1.30;;;;;;;;;;5027972;28;20059;-63
2023/11/26 07:08:18;;;;;;;5.72;1.25;;;;;;;;;;5026800;28;20523;-59
2023/11/26 07:10:44;;;;;;;4.20;1.50;;;;;;;;;;5028376;28;20047;-60
2023/11/26 07:13:10;;;;;;;4.80;1.55;;;;;;;;;;5030081;28;20034;-61
2023/11/26 07:15:35;;;;;;;4.22;1.40;;;;;;;;;;5024256;28;20144;-61
2023/11/26 07:18:00;;;;;;;4.75;1.50;;;;;;;;;;5026585;28;20382;-59
2023/11/26 07:20:27;;;;;;;4.37;1.40;;;;;;;;;;5027236;28;20021;-60
2023/11/26 07:22:52;;;;;;;4.85;1.55;;;;;;;;;;5025820;28;20029;-61
2023/11/26 07:25:17;;;;;;;4.40;1.50;;;;;;;;;;5022343;28;20036;-60
2023/11/26 07:27:42;;;;;;;3.80;1.40;;;;;;;;;;5029331;28;20118;-59
2023/11/26 07:30:07;;;;;;;7.23;1.50;;;;;;;;;;5028077;28;20029;-60
2023/11/26 07:32:33;;;;;;;4.28;1.55;;;;;;;;;;5025329;28;20068;-58
2023/11/26 07:34:58;;;;;;;6.60;1.80;;;;;;;;;;5018787;28;20029;-63
2023/11/26 07:37:26;;;;;;;4.23;1.53;;;;;;;;;;5027250;28;20029;-59
2023/11/26 07:39:51;;;;;;;4.05;1.50;;;;;;;;;;5025171;28;20021;-58
2023/11/26 07:42:17;;;;;;;5.60;1.75;;;;;;;;;;5031638;28;20087;-60
2023/11/26 07:44:42;;;;;;;4.72;1.60;;;;;;;;;;5029269;28;20470;-61
2023/11/26 07:47:08;;;;;;;3.97;1.50;;;;;;;;;;5018804;28;20022;-60
2023/11/26 07:49:36;;;;;;;4.85;1.80;;;;;;;;;;5025127;28;20163;-58
2023/11/26 07:52:01;;;;;;;4.35;1.50;;;;;;;;;;5029560;28;20105;-58
2023/11/26 07:54:26;;;;;;;6.37;1.60;;;;;;;;;;5020658;28;20120;-59
2023/11/26 07:56:51;;;;;;;4.67;1.50;;;;;;;;;;5025321;28;20441;-60
2023/11/26 07:59:16;;;;;;;5.18;1.48;;;;;;;;;;5027703;28;20030;-59
2023/11/26 08:01:41;;;;;;;6.77;1.57;;;;;;;;;;5023592;28;20568;-59
2023/11/26 08:04:07;;;;;;;4.63;1.70;;;;;;;;;;5027904;28;20497;-61
2023/11/26 08:06:32;;;;;;;4.77;1.43;;;;;;;;;;5027406;28;20030;-61
2023/11/26 08:08:57;;;;;;;3.83;1.23;;;;;;;;;;5024314;28;20033;-61
2023/11/26 08:11:23;;;;;;;5.47;1.80;;;;;;;;;;5023884;28;20492;-62
2023/11/26 08:13:48;;;;;;;5.87;1.80;;;;;;;;;;5030039;28;20021;-61
2023/11/26 08:16:15;;;;;;;6.18;1.80;;;;;;;;;;5021320;28;20025;-61
2023/11/26 08:18:41;;;;;;;4.32;1.42;;;;;;;;;;5013972;28;20029;-64
2023/11/26 08:21:06;;;;;;;4.13;1.45;;;;;;;;;;5027493;28;20032;-60
2023/11/26 08:23:43;;;;;;;4.43;1.30;;;;;;;;;;5017934;28;20061;-60
2023/11/26 08:26:10;;;;;;;5.90;1.25;;;;;;;;;;5022193;28;20030;-61
2023/11/26 08:28:35;;;;;;;3.50;1.13;;;;;;;;;;5030631;28;20013;-61
2023/11/26 08:31:01;;;;;;;3.70;1.30;;;;;;;;;;5020640;28;20044;-59
2023/11/26 08:33:30;;;;;;;4.05;1.30;;;;;;;;;;5023075;28;20526;-60
2023/11/26 08:35:59;;;;;;;4.60;1.20;;;;;;;;;;5022959;28;20393;-61
2023/11/26 08:38:24;;;;;;;6.38;1.85;;;;;;;;;;5024073;28;20026;-62
2023/11/26 08:40:50;;;;;;;4.27;1.27;;;;;;;;;;5027249;28;20020;-59
2023/11/26 08:43:19;;;;;;;3.72;1.27;;;;;;;;;;5023180;28;20601;-62
2023/11/26 08:45:44;;;;;;;3.67;1.00;;;;;;;;;;5022807;28;20014;-61
2023/11/26 08:48:15;;;;;;;4.00;1.30;;;;;;;;;;5027570;28;20075;-60
2023/11/26 08:50:41;;;;;;;4.47;1.20;;;;;;;;;;5021438;28;20018;-63
2023/11/26 08:53:09;;;;;;;6.90;1.70;;;;;;;;;;5026797;28;20105;-61
2023/11/26 08:55:34;;;;;;;3.85;1.50;;;;;;;;;;5021997;28;20053;-61
2023/11/26 08:58:00;;;;;;;4.50;1.60;;;;;;;;;;5017814;28;20056;-59
2023/11/26 09:00:25;;;;;;;4.35;1.48;;;;;;;;;;5023256;28;20029;-63
2023/11/26 09:02:50;;;;;;;4.65;1.95;;;;;;;;;;5024164;28;20047;-59
2023/11/26 09:05:16;;;;;;;5.10;1.77;;;;;;;;;;5024486;28;20021;-62
2023/11/26 09:07:41;;;;;;;5.37;1.77;;;;;;;;;;5011685;28;20034;-60
2023/11/26 09:10:07;;;;;;;7.45;1.60;;;;;;;;;;5021687;28;20025;-61
2023/11/26 09:12:36;;;;;;;5.53;1.70;;;;;;;;;;5019153;28;20052;-61
2023/11/26 09:15:02;;;;;;;3.92;1.45;;;;;;;;;;5028874;28;20051;-59
2023/11/26 09:17:27;;;;;;;4.32;1.63;;;;;;;;;;5028406;28;20053;-59
2023/11/26 09:19:53;;;;;;;6.40;1.77;;;;;;;;;;5024453;28;20429;-63
2023/11/26 09:22:18;;;;;;;5.07;1.75;;;;;;;;;;5026060;28;20087;-59
2023/11/26 09:24:43;;;;;;;6.10;1.70;;;;;;;;;;5021767;28;20018;-61
2023/11/26 09:27:09;;;;;;;4.00;1.40;;;;;;;;;;5015355;28;20467;-62
2023/11/26 09:29:34;;;;;;;5.50;1.85;;;;;;;;;;5022029;28;20037;-60
2023/11/26 09:31:59;;;;;;;6.30;2.13;;;;;;;;;;5020930;28;20096;-59
2023/11/26 09:34:24;;;;;;;6.43;2.60;;;;;;;;;;5021220;28;20419;-60
2023/11/26 09:36:52;;;;;;;5.93;2.00;;;;;;;;;;5021105;28;21021;-61
2023/11/26 09:39:17;;;;;;;16.98;6.57;;;;;;;;;;5021966;28;20018;-60
2023/11/26 09:41:43;;;;;;;29.45;12.13;;;;;;;;;;5018548;28;20107;-60
2023/11/26 09:44:09;;;;;;;13.82;6.40;;;;;;;;;;5011781;28;20508;-60
2023/11/26 09:46:37;;;;;;;6.78;2.80;;;;;;;;;;5018544;28;20030;-60
2023/11/26 09:49:02;;;;;;;8.02;3.47;;;;;;;;;;5032384;28;20025;-61
2023/11/26 09:51:27;;;;;;;5.28;2.45;;;;;;;;;;5018118;28;20500;-60
2023/11/26 09:53:53;;;;;;;6.80;2.55;;;;;;;;;;5016525;28;20106;-61
2023/11/26 09:56:18;;;;;;;5.50;2.33;;;;;;;;;;5019378;28;20021;-61
2023/11/26 09:58:43;;;;;;;5.77;2.53;;;;;;;;;;5018439;28;20033;-60
2023/11/26 10:01:10;;;;;;;7.47;2.90;;;;;;;;;;5017600;28;20367;-59
2023/11/26 10:03:35;;;;;;;;;;;;;;;;;;5019389;28;20037;-63
2023/11/26 10:06:09;;;;;;;11.60;3.85;;;;;;;;;;5018474;28;19909;-58
2023/11/26 10:08:35;;;;;;;8.55;3.63;;;;;;;;;;5018276;28;20486;-63
2023/11/26 10:11:00;;;;;;;10.13;4.30;;;;;;;;;;5017662;28;20100;-62
2023/11/26 10:13:35;;;;;;;8.75;4.28;;;;;;;;;;5018959;28;20402;-62
2023/11/26 10:16:00;;;;;;;12.82;5.43;;;;;;;;;;5022767;28;20021;-60
2023/11/26 10:18:38;;;;;;;9.47;4.53;;;;;;;;;;5028751;28;20367;-60
2023/11/26 10:21:07;;;;;;;8.48;4.43;;;;;;;;;;5026171;28;20509;-62
2023/11/26 10:23:36;;;;;;;10.93;4.25;;;;;;;;;;5037192;28;20119;-61
2023/11/26 10:26:04;;;;;;;8.38;4.45;;;;;;;;;;5019288;28;20165;-61
2023/11/26 10:28:29;;;;;;;9.55;4.43;;;;;;;;;;5017856;28;20468;-68
2023/11/26 10:31:04;;;;;;;10.17;4.93;;;;;;;;;;5014771;28;20045;-61
2023/11/26 10:33:29;;;;;;;10.30;4.25;;;;;;;;;;5019268;28;20030;-59
2023/11/26 10:35:55;;;;;;;11.30;4.60;;;;;;;;;;5025835;28;20025;-59
2023/11/26 10:38:21;;;;;;;10.02;4.18;;;;;;;;;;5028125;28;20456;-59
2023/11/26 10:40:47;;;;;;;25.42;8.75;;;;;;;;;;5013634;28;20161;-60
2023/11/26 10:43:13;;;;;;;25.83;9.25;;;;;;;;;;5041614;28;20116;-60
2023/11/26 10:45:40;;;;;;;8.18;4.63;;;;;;;;;;5024369;28;20025;-61
2023/11/26 10:48:09;;;;;;;8.98;4.22;;;;;;;;;;5020163;28;20024;-60
2023/11/26 10:50:37;;;;;;;10.00;4.25;;;;;;;;;;5023669;28;20034;-64
2023/11/26 10:53:03;;;;;;;8.82;4.18;;;;;;;;;;5018785;28;20095;-62
2023/11/26 10:55:33;;;;;;;7.05;3.33;;;;;;;;;;5022337;28;20485;-62
2023/11/26 10:58:02;;;;;;;7.18;3.80;;;;;;;;;;5016390;28;20045;-62
2023/11/26 11:00:29;;;;;;;8.43;3.60;;;;;;;;;;5028411;28;20028;-62
2023/11/26 11:02:56;;;;;;;8.43;3.63;;;;;;;;;;5029329;28;20117;-65
2023/11/26 11:05:22;;;;;;;;;;;;;;;;;;5029429;28;20029;-63
2023/11/26 11:07:47;;;;;;;6.45;3.03;;;;;;;;;;5025135;28;20329;-61
2023/11/26 11:10:24;;;;;;;5.20;2.75;;;;;;;;;;5027657;28;20079;-63
2023/11/26 11:12:49;;;;;;;8.60;3.08;;;;;;;;;;5025434;28;20085;-63
2023/11/26 11:15:16;;;;;;;6.40;3.20;;;;;;;;;;5023544;28;20551;-63
2023/11/26 11:17:41;;;;;;;8.15;4.75;;;;;;;;;;5027683;28;20018;-64
2023/11/26 11:20:07;;;;;;;8.02;3.05;;;;;;;;;;5021571;28;20025;-64
2023/11/26 11:22:35;;;;;;;6.50;3.03;;;;;;;;;;5028092;28;20037;-63
2023/11/26 11:25:04;;;;;;;7.65;2.85;;;;;;;;;;5023915;28;20021;-62
2023/11/26 11:27:49;;;;;;;7.13;2.78;;;;;;;;;;5028511;28;20056;-62
2023/11/26 11:30:32;;;;;;;6.85;2.80;;;;;;;;;;5028547;28;20028;-63
2023/11/26 11:33:09;;;;;;;4.40;2.08;;;;;;;;;;5027114;28;20013;-61
2023/11/26 11:35:35;;;;;;;6.75;4.93;;;;;;;;;;5024313;28;20022;-62
2023/11/26 11:38:06;;;;;;;5.03;2.08;;;;;;;;;;5031971;28;20035;-61
2023/11/26 11:40:50;;;;;;;6.50;2.50;;;;;;;;;;5032333;28;20065;-60
2023/11/26 11:43:15;;;;;;;5.35;2.17;;;;;;;;;;5028846;28;20037;-62
2023/11/26 11:45:41;;;;;;;6.90;2.25;;;;;;;;;;5030607;28;20029;-63
2023/11/26 11:48:06;;;;;;;5.47;2.27;;;;;;;;;;5031299;28;20013;-59
2023/11/26 11:50:31;;;;;;;7.15;1.85;;;;;;;;;;5046218;28;20029;-61
2023/11/26 11:52:56;;;;;;;5.60;2.10;;;;;;;;;;5041687;28;20033;-59
2023/11/26 11:55:30;;;;;;;7.25;2.30;;;;;;;;;;5020842;28;20139;-61
2023/11/26 11:57:56;;;;;;;6.63;2.47;;;;;;;;;;5030540;28;20112;-60
2023/11/26 12:00:21;;;;;;;5.13;2.10;;;;;;;;;;5031340;28;20455;-62
2023/11/26 12:02:48;;;;;;;7.10;2.53;;;;;;;;;;5031771;28;20497;-61
2023/11/26 12:05:24;;;;;;;6.70;2.72;;;;;;;;;;5025587;28;20478;-63
2023/11/26 12:07:49;;;;;;;12.52;4.45;;;;;;;;;;5026010;28;20564;-60
2023/11/26 12:10:21;;;;;;;13.18;4.40;;;;;;;;;;5022143;28;20667;-61
2023/11/26 12:12:58;;;;;;;42.05;9.98;;;;;;;;;;5028991;28;20465;-60
2023/11/26 12:15:23;;;;;;;6.53;2.95;;;;;;;;;;5029065;28;20109;-60
2023/11/26 12:17:48;;;;;;;5.82;2.55;;;;;;;;;;5026767;28;20069;-59
2023/11/26 12:20:13;;;;;;;5.27;2.17;;;;;;;;;;5028248;28;20029;-63
2023/11/26 12:22:45;;;;;;;7.63;2.37;;;;;;;;;;5020370;28;20021;-61
2023/11/26 12:25:10;;;;;;;6.72;2.38;;;;;;;;;;5031382;28;20473;-60
2023/11/26 12:27:37;;;;;;;6.20;2.75;;;;;;;;;;5025886;28;20025;-63
2023/11/26 12:30:13;;;;;;;6.90;2.45;;;;;;;;;;5039207;28;20025;-62
2023/11/26 12:32:40;;;;;;;4.90;2.13;;;;;;;;;;5021310;28;20583;-63
2023/11/26 12:35:10;;;;;;;5.50;2.40;;;;;;;;;;5029855;28;20728;-60
2023/11/26 12:37:35;;;;;;;4.18;1.65;;;;;;;;;;5023818;28;20453;-60
2023/11/26 12:40:01;;;;;;;4.73;1.70;;;;;;;;;;5028342;28;20079;-62
2023/11/26 12:42:27;;;;;;;8.35;2.35;;;;;;;;;;5016575;28;20509;-61
2023/11/26 12:44:52;;;;;;;5.50;2.30;;;;;;;;;;5025818;28;20025;-63
2023/11/26 12:47:17;;;;;;;8.07;2.50;;;;;;;;;;5022667;28;20458;-60
2023/11/26 12:49:55;;;;;;;5.75;2.20;;;;;;;;;;5028625;28;20060;-62
2023/11/26 12:52:20;;;;;;;7.65;2.00;;;;;;;;;;5024346;28;20143;-63
2023/11/26 12:54:46;;;;;;;4.97;2.10;;;;;;;;;;5023399;28;20014;-60
2023/11/26 12:57:11;;;;;;;6.90;1.97;;;;;;;;;;5020156;28;20083;-60
2023/11/26 12:59:46;;;;;;;5.83;2.03;;;;;;;;;;5016624;28;20032;-64
2023/11/26 13:02:12;;;;;;;5.43;2.30;;;;;;;;;;5026705;28;21087;-60
2023/11/26 13:04:37;;;;;;;5.30;1.85;;;;;;;;;;5029852;28;20061;-64
2023/11/26 13:07:04;;;;;;;6.33;1.87;;;;;;;;;;5026944;28;20108;-62
2023/11/26 13:09:29;;;;;;;7.25;2.67;;;;;;;;;;5024008;28;20156;-62
2023/11/26 13:11:59;;;;;;;5.33;2.07;;;;;;;;;;5024722;28;20104;-60
2023/11/26 13:14:25;;;;;;;6.97;2.10;;;;;;;;;;5029107;28;20084;-64
2023/11/26 13:16:52;;;;;;;4.30;1.80;;;;;;;;;;5022450;28;20482;-61
2023/11/26 13:19:17;;;;;;;5.28;1.90;;;;;;;;;;5025555;28;20018;-61
2023/11/26 13:21:47;;;;;;;6.03;1.70;;;;;;;;;;5034757;28;20048;-60
2023/11/26 13:24:12;;;;;;;6.60;1.73;;;;;;;;;;5035387;28;20097;-66
2023/11/26 13:26:38;;;;;;;8.55;2.53;;;;;;;;;;5027727;28;20024;-61
2023/11/26 13:29:03;;;;;;;5.63;2.35;;;;;;;;;;5034404;28;20049;-62
2023/11/26 13:31:28;;;;;;;6.77;2.27;;;;;;;;;;5018863;28;20034;-61
2023/11/26 13:33:53;;;;;;;5.87;2.23;;;;;;;;;;5022872;28;20445;-62
2023/11/26 13:36:18;;;;;;;6.33;1.90;;;;;;;;;;5021879;28;20018;-60
2023/11/26 13:38:44;;;;;;;5.95;2.53;;;;;;;;;;5030673;28;20033;-61
2023/11/26 13:41:09;;;;;;;5.15;2.00;;;;;;;;;;5042751;28;20021;-62
2023/11/26 13:43:34;;;;;;;8.30;2.40;;;;;;;;;;5023909;28;20029;-60
2023/11/26 13:46:03;;;;;;;6.47;2.03;;;;;;;;;;5023517;28;20049;-60
2023/11/26 13:48:28;;;;;;;6.03;2.10;;;;;;;;;;5015282;28;20057;-62
2023/11/26 13:50:56;;;;;;;7.15;2.80;;;;;;;;;;5023387;28;20041;-61
2023/11/26 13:53:23;;;;;;;6.32;2.25;;;;;;;;;;5022217;28;20168;-61
2023/11/26 13:55:48;;;;;;;8.23;2.90;;;;;;;;;;5018689;28;20104;-61
2023/11/26 13:58:13;;;;;;;7.80;2.83;;;;;;;;;;5020544;28;20151;-62
2023/11/26 14:00:39;;;;;;;10.35;2.92;;;;;;;;;;5037446;28;20482;-61
2023/11/26 14:03:04;;;;;;;6.22;2.40;;;;;;;;;;5022519;28;20033;-62
2023/11/26 14:05:29;;;;;;;12.45;4.53;;;;;;;;;;5015673;28;20030;-63
2023/11/26 14:07:55;;;;;;;11.30;4.07;;;;;;;;;;5041082;28;20111;-60
2023/11/26 14:10:21;;;;;;;8.47;3.33;;;;;;;;;;5028845;28;20048;-63
2023/11/26 14:12:47;;;;;;;6.07;2.53;;;;;;;;;;5023432;28;20053;-60
2023/11/26 14:15:14;;;;;;;8.35;3.20;;;;;;;;;;5016147;28;20116;-60
2023/11/26 14:17:40;;;;;;;11.10;3.97;;;;;;;;;;5019157;28;20572;-61
2023/11/26 14:20:12;;;;;;;13.52;5.28;;;;;;;;;;5019603;28;20040;-61
2023/11/26 14:22:41;;;;;;;8.52;3.80;;;;;;;;;;5022062;28;20028;-59
2023/11/26 14:25:06;;;;;;;7.57;3.20;;;;;;;;;;5039003;28;20029;-63
2023/11/26 14:27:33;;;;;;;11.82;3.72;;;;;;;;;;5027621;28;20440;-59
2023/11/26 14:29:58;;;;;;;9.23;3.53;;;;;;;;;;5020600;28;20120;-61
2023/11/26 14:32:23;;;;;;;10.63;4.17;;;;;;;;;;5017885;28;20470;-60
2023/11/26 14:34:50;;;;;;;8.63;3.58;;;;;;;;;;5026390;28;20512;-62
2023/11/26 14:37:15;;;;;;;6.15;2.40;;;;;;;;;;5020286;28;20022;-60
2023/11/26 14:39:40;;;;;;;7.07;2.63;;;;;;;;;;5022681;28;20025;-61
2023/11/26 14:42:07;;;;;;;5.68;2.20;;;;;;;;;;5024861;28;20029;-61